sensor_id;sensor_type;location;lat;lon;timestamp;P1;durP1;ratioP1;P2;durP2;ratioP2
8482;SDS011;4278;42.668;23.312;2023-08-07T00:00:21;1.83;;;1.70;;
8482;SDS011;4278;42.668;23.312;2023-08-07T00:02:48;2.22;;;1.50;;
8482;SDS011;4278;42.668;23.312;2023-08-07T00:05:15;1.70;;;1.60;;
8482;SDS011;4278;42.668;23.312;2023-08-07T00:07:42;1.77;;;1.67;;
8482;SDS011;4278;42.668;23.312;2023-08-07T00:10:11;1.77;;;1.67;;
8482;SDS011;4278;42.668;23.312;2023-08-07T00:12:38;2.22;;;2.03;;
8482;SDS011;4278;42.668;23.312;2023-08-07T00:15:05;2.40;;;1.95;;
8482;SDS011;4278;42.668;23.312;2023-08-07T00:17:33;2.17;;;1.98;;
8482;SDS011;4278;42.668;23.312;2023-08-07T00:19:59;2.50;;;2.30;;
8482;SDS011;4278;42.668;23.312;2023-08-07T00:22:26;2.88;;;2.33;;
8482;SDS011;4278;42.668;23.312;2023-08-07T00:24:53;2.38;;;2.17;;
8482;SDS011;4278;42.668;23.312;2023-08-07T00:27:21;2.58;;;1.95;;
8482;SDS011;4278;42.668;23.312;2023-08-07T00:29:48;2.38;;;2.17;;
8482;SDS011;4278;42.668;23.312;2023-08-07T00:32:15;2.35;;;2.15;;
8482;SDS011;4278;42.668;23.312;2023-08-07T00:34:41;2.38;;;2.17;;
8482;SDS011;4278;42.668;23.312;2023-08-07T00:37:08;2.45;;;1.80;;
8482;SDS011;4278;42.668;23.312;2023-08-07T00:39:35;3.28;;;2.05;;
8482;SDS011;4278;42.668;23.312;2023-08-07T00:42:02;2.30;;;2.10;;
8482;SDS011;4278;42.668;23.312;2023-08-07T00:44:30;2.15;;;1.98;;
8482;SDS011;4278;42.668;23.312;2023-08-07T00:46:57;2.60;;;2.38;;
8482;SDS011;4278;42.668;23.312;2023-08-07T00:49:24;2.53;;;2.33;;
8482;SDS011;4278;42.668;23.312;2023-08-07T00:51:52;2.58;;;1.90;;
8482;SDS011;4278;42.668;23.312;2023-08-07T00:54:19;2.72;;;2.38;;
8482;SDS011;4278;42.668;23.312;2023-08-07T00:56:46;3.80;;;2.30;;
8482;SDS011;4278;42.668;23.312;2023-08-07T00:59:14;2.83;;;2.58;;
8482;SDS011;4278;42.668;23.312;2023-08-07T01:01:43;2.47;;;2.28;;
8482;SDS011;4278;42.668;23.312;2023-08-07T01:04:10;3.13;;;2.60;;
8482;SDS011;4278;42.668;23.312;2023-08-07T01:06:37;2.27;;;2.07;;
8482;SDS011;4278;42.668;23.312;2023-08-07T01:09:03;4.40;;;2.57;;
8482;SDS011;4278;42.668;23.312;2023-08-07T01:11:32;2.70;;;2.50;;
8482;SDS011;4278;42.668;23.312;2023-08-07T01:14:07;2.47;;;2.27;;
8482;SDS011;4278;42.668;23.312;2023-08-07T01:16:46;3.63;;;1.97;;
8482;SDS011;4278;42.668;23.312;2023-08-07T01:19:26;2.25;;;2.05;;
8482;SDS011;4278;42.668;23.312;2023-08-07T01:22:05;3.23;;;2.90;;
8482;SDS011;4278;42.668;23.312;2023-08-07T01:24:32;3.07;;;2.70;;
8482;SDS011;4278;42.668;23.312;2023-08-07T01:27:00;3.55;;;2.60;;
8482;SDS011;4278;42.668;23.312;2023-08-07T01:29:47;3.20;;;2.90;;
8482;SDS011;4278;42.668;23.312;2023-08-07T01:32:22;4.70;;;2.90;;
8482;SDS011;4278;42.668;23.312;2023-08-07T01:34:52;3.10;;;2.80;;
8482;SDS011;4278;42.668;23.312;2023-08-07T01:37:24;4.07;;;3.07;;
8482;SDS011;4278;42.668;23.312;2023-08-07T01:39:53;3.40;;;3.10;;
8482;SDS011;4278;42.668;23.312;2023-08-07T01:42:23;3.50;;;3.20;;
8482;SDS011;4278;42.668;23.312;2023-08-07T01:44:50;3.47;;;3.00;;
8482;SDS011;4278;42.668;23.312;2023-08-07T01:47:17;3.30;;;2.97;;
8482;SDS011;4278;42.668;23.312;2023-08-07T01:49:44;3.53;;;3.17;;
8482;SDS011;4278;42.668;23.312;2023-08-07T01:52:11;3.87;;;3.40;;
8482;SDS011;4278;42.668;23.312;2023-08-07T01:54:39;3.30;;;3.00;;
8482;SDS011;4278;42.668;23.312;2023-08-07T01:57:06;3.40;;;3.07;;
8482;SDS011;4278;42.668;23.312;2023-08-07T01:59:33;3.80;;;3.10;;
8482;SDS011;4278;42.668;23.312;2023-08-07T02:01:59;3.33;;;3.03;;
8482;SDS011;4278;42.668;23.312;2023-08-07T02:04:26;4.80;;;3.00;;
8482;SDS011;4278;42.668;23.312;2023-08-07T02:06:53;4.83;;;2.70;;
8482;SDS011;4278;42.668;23.312;2023-08-07T02:09:19;3.73;;;3.30;;
8482;SDS011;4278;42.668;23.312;2023-08-07T02:11:48;3.13;;;2.67;;
8482;SDS011;4278;42.668;23.312;2023-08-07T02:14:15;4.17;;;3.13;;
8482;SDS011;4278;42.668;23.312;2023-08-07T02:16:41;3.47;;;3.17;;
8482;SDS011;4278;42.668;23.312;2023-08-07T02:19:08;4.77;;;2.60;;
8482;SDS011;4278;42.668;23.312;2023-08-07T02:21:35;3.10;;;2.80;;
8482;SDS011;4278;42.668;23.312;2023-08-07T02:24:02;3.37;;;3.03;;
8482;SDS011;4278;42.668;23.312;2023-08-07T02:26:28;3.10;;;2.80;;
8482;SDS011;4278;42.668;23.312;2023-08-07T02:28:57;3.50;;;3.07;;
8482;SDS011;4278;42.668;23.312;2023-08-07T02:31:23;3.27;;;2.53;;
8482;SDS011;4278;42.668;23.312;2023-08-07T02:33:50;3.53;;;3.03;;
8482;SDS011;4278;42.668;23.312;2023-08-07T02:36:17;3.23;;;2.93;;
8482;SDS011;4278;42.668;23.312;2023-08-07T02:38:44;3.40;;;3.10;;
8482;SDS011;4278;42.668;23.312;2023-08-07T02:41:10;3.53;;;2.83;;
8482;SDS011;4278;42.668;23.312;2023-08-07T02:43:37;3.13;;;2.83;;
8482;SDS011;4278;42.668;23.312;2023-08-07T02:46:05;3.07;;;2.67;;
8482;SDS011;4278;42.668;23.312;2023-08-07T02:48:32;2.90;;;2.50;;
8482;SDS011;4278;42.668;23.312;2023-08-07T02:50:59;3.03;;;2.80;;
8482;SDS011;4278;42.668;23.312;2023-08-07T02:53:25;3.20;;;2.90;;
8482;SDS011;4278;42.668;23.312;2023-08-07T02:55:52;4.23;;;2.70;;
8482;SDS011;4278;42.668;23.312;2023-08-07T02:58:19;2.87;;;2.63;;
8482;SDS011;4278;42.668;23.312;2023-08-07T03:00:46;4.27;;;2.77;;
8482;SDS011;4278;42.668;23.312;2023-08-07T03:03:14;3.67;;;2.90;;
8482;SDS011;4278;42.668;23.312;2023-08-07T03:05:47;3.53;;;3.03;;
8482;SDS011;4278;42.668;23.312;2023-08-07T03:08:14;3.40;;;3.03;;
8482;SDS011;4278;42.668;23.312;2023-08-07T03:10:41;3.50;;;3.20;;
8482;SDS011;4278;42.668;23.312;2023-08-07T03:13:07;3.97;;;3.20;;
8482;SDS011;4278;42.668;23.312;2023-08-07T03:15:34;2.90;;;2.70;;
8482;SDS011;4278;42.668;23.312;2023-08-07T03:18:01;3.77;;;3.40;;
8482;SDS011;4278;42.668;23.312;2023-08-07T03:20:29;4.13;;;3.37;;
8482;SDS011;4278;42.668;23.312;2023-08-07T03:22:55;3.77;;;3.37;;
8482;SDS011;4278;42.668;23.312;2023-08-07T03:25:22;3.60;;;3.30;;
8482;SDS011;4278;42.668;23.312;2023-08-07T03:27:49;3.50;;;3.07;;
8482;SDS011;4278;42.668;23.312;2023-08-07T03:30:15;3.97;;;3.57;;
8482;SDS011;4278;42.668;23.312;2023-08-07T03:32:42;4.03;;;3.50;;
8482;SDS011;4278;42.668;23.312;2023-08-07T03:35:09;5.23;;;3.70;;
8482;SDS011;4278;42.668;23.312;2023-08-07T03:37:37;3.60;;;3.30;;
8482;SDS011;4278;42.668;23.312;2023-08-07T03:40:04;3.43;;;3.00;;
8482;SDS011;4278;42.668;23.312;2023-08-07T03:42:31;3.97;;;3.13;;
8482;SDS011;4278;42.668;23.312;2023-08-07T03:44:58;4.37;;;3.53;;
8482;SDS011;4278;42.668;23.312;2023-08-07T03:47:25;4.23;;;3.23;;
8482;SDS011;4278;42.668;23.312;2023-08-07T03:49:51;3.30;;;3.00;;
8482;SDS011;4278;42.668;23.312;2023-08-07T03:52:18;3.70;;;3.40;;
8482;SDS011;4278;42.668;23.312;2023-08-07T03:54:47;3.67;;;3.30;;
8482;SDS011;4278;42.668;23.312;2023-08-07T03:57:13;3.43;;;3.00;;
8482;SDS011;4278;42.668;23.312;2023-08-07T03:59:40;4.50;;;3.33;;
8482;SDS011;4278;42.668;23.312;2023-08-07T04:02:07;3.70;;;3.00;;
8482;SDS011;4278;42.668;23.312;2023-08-07T04:04:33;3.37;;;3.07;;
8482;SDS011;4278;42.668;23.312;2023-08-07T04:07:00;3.93;;;2.87;;
8482;SDS011;4278;42.668;23.312;2023-08-07T04:09:27;3.63;;;2.93;;
8482;SDS011;4278;42.668;23.312;2023-08-07T04:11:55;3.73;;;3.20;;
8482;SDS011;4278;42.668;23.312;2023-08-07T04:14:22;3.50;;;3.20;;
8482;SDS011;4278;42.668;23.312;2023-08-07T04:16:49;3.40;;;3.10;;
8482;SDS011;4278;42.668;23.312;2023-08-07T04:19:16;3.30;;;3.00;;
8482;SDS011;4278;42.668;23.312;2023-08-07T04:21:43;4.50;;;3.20;;
8482;SDS011;4278;42.668;23.312;2023-08-07T04:24:10;5.70;;;3.30;;
8482;SDS011;4278;42.668;23.312;2023-08-07T04:26:37;4.23;;;3.57;;
8482;SDS011;4278;42.668;23.312;2023-08-07T04:29:05;3.70;;;3.33;;
8482;SDS011;4278;42.668;23.312;2023-08-07T04:31:32;7.83;;;4.03;;
8482;SDS011;4278;42.668;23.312;2023-08-07T04:33:59;3.60;;;3.30;;
8482;SDS011;4278;42.668;23.312;2023-08-07T04:36:25;4.10;;;3.70;;
8482;SDS011;4278;42.668;23.312;2023-08-07T04:38:52;4.57;;;3.00;;
8482;SDS011;4278;42.668;23.312;2023-08-07T04:41:20;3.23;;;3.00;;
8482;SDS011;4278;42.668;23.312;2023-08-07T04:43:47;3.87;;;3.37;;
8482;SDS011;4278;42.668;23.312;2023-08-07T04:46:15;3.47;;;3.17;;
8482;SDS011;4278;42.668;23.312;2023-08-07T04:48:42;2.90;;;2.60;;
8482;SDS011;4278;42.668;23.312;2023-08-07T04:51:08;3.92;;;3.53;;
8482;SDS011;4278;42.668;23.312;2023-08-07T04:53:35;4.60;;;3.10;;
8482;SDS011;4278;42.668;23.312;2023-08-07T04:56:02;3.55;;;3.15;;
8482;SDS011;4278;42.668;23.312;2023-08-07T04:58:29;5.10;;;3.05;;
8482;SDS011;4278;42.668;23.312;2023-08-07T05:00:56;3.75;;;3.30;;
8482;SDS011;4278;42.668;23.312;2023-08-07T05:03:24;3.70;;;2.80;;
8482;SDS011;4278;42.668;23.312;2023-08-07T05:05:57;3.40;;;3.10;;
8482;SDS011;4278;42.668;23.312;2023-08-07T05:08:24;4.22;;;3.00;;
8482;SDS011;4278;42.668;23.312;2023-08-07T05:10:51;3.65;;;2.88;;
8482;SDS011;4278;42.668;23.312;2023-08-07T05:13:18;2.92;;;2.67;;
8482;SDS011;4278;42.668;23.312;2023-08-07T05:15:46;2.85;;;2.50;;
8482;SDS011;4278;42.668;23.312;2023-08-07T05:18:14;5.18;;;2.88;;
8482;SDS011;4278;42.668;23.312;2023-08-07T05:20:42;3.25;;;2.95;;
8482;SDS011;4278;42.668;23.312;2023-08-07T05:23:08;3.22;;;2.92;;
8482;SDS011;4278;42.668;23.312;2023-08-07T05:25:35;3.22;;;2.92;;
8482;SDS011;4278;42.668;23.312;2023-08-07T05:28:02;3.83;;;2.85;;
8482;SDS011;4278;42.668;23.312;2023-08-07T05:30:30;4.63;;;3.00;;
8482;SDS011;4278;42.668;23.312;2023-08-07T05:32:57;3.72;;;3.33;;
8482;SDS011;4278;42.668;23.312;2023-08-07T05:35:23;5.32;;;4.32;;
8482;SDS011;4278;42.668;23.312;2023-08-07T05:37:51;3.78;;;3.20;;
8482;SDS011;4278;42.668;23.312;2023-08-07T05:40:18;3.03;;;2.42;;
8482;SDS011;4278;42.668;23.312;2023-08-07T05:42:45;2.75;;;2.40;;
8482;SDS011;4278;42.668;23.312;2023-08-07T05:45:12;3.45;;;2.60;;
8482;SDS011;4278;42.668;23.312;2023-08-07T05:47:39;5.20;;;3.10;;
8482;SDS011;4278;42.668;23.312;2023-08-07T05:50:06;4.53;;;2.97;;
8482;SDS011;4278;42.668;23.312;2023-08-07T05:52:33;2.97;;;2.65;;
8482;SDS011;4278;42.668;23.312;2023-08-07T05:55:01;3.38;;;2.63;;
8482;SDS011;4278;42.668;23.312;2023-08-07T05:57:28;3.17;;;2.90;;
8482;SDS011;4278;42.668;23.312;2023-08-07T05:59:54;3.20;;;2.60;;
8482;SDS011;4278;42.668;23.312;2023-08-07T06:02:21;3.53;;;3.00;;
8482;SDS011;4278;42.668;23.312;2023-08-07T06:04:48;2.78;;;2.53;;
8482;SDS011;4278;42.668;23.312;2023-08-07T06:07:15;3.80;;;2.67;;
8482;SDS011;4278;42.668;23.312;2023-08-07T06:09:41;5.85;;;2.88;;
8482;SDS011;4278;42.668;23.312;2023-08-07T06:12:10;5.88;;;3.17;;
8482;SDS011;4278;42.668;23.312;2023-08-07T06:14:36;3.65;;;3.22;;
8482;SDS011;4278;42.668;23.312;2023-08-07T06:17:05;3.53;;;2.75;;
8482;SDS011;4278;42.668;23.312;2023-08-07T06:19:32;3.13;;;2.83;;
8482;SDS011;4278;42.668;23.312;2023-08-07T06:21:58;3.33;;;3.03;;
8482;SDS011;4278;42.668;23.312;2023-08-07T06:24:25;3.25;;;2.95;;
8482;SDS011;4278;42.668;23.312;2023-08-07T06:26:52;4.60;;;2.83;;
8482;SDS011;4278;42.668;23.312;2023-08-07T06:29:20;2.65;;;2.45;;
8482;SDS011;4278;42.668;23.312;2023-08-07T06:31:47;2.47;;;2.28;;
8482;SDS011;4278;42.668;23.312;2023-08-07T06:34:13;2.47;;;2.20;;
8482;SDS011;4278;42.668;23.312;2023-08-07T06:36:40;2.70;;;2.50;;
8482;SDS011;4278;42.668;23.312;2023-08-07T06:39:07;3.45;;;2.53;;
8482;SDS011;4278;42.668;23.312;2023-08-07T06:41:35;4.38;;;3.17;;
8482;SDS011;4278;42.668;23.312;2023-08-07T06:44:02;4.28;;;2.85;;
8482;SDS011;4278;42.668;23.312;2023-08-07T06:46:30;3.35;;;2.35;;
8482;SDS011;4278;42.668;23.312;2023-08-07T06:48:57;2.40;;;2.20;;
8482;SDS011;4278;42.668;23.312;2023-08-07T06:51:24;2.00;;;1.80;;
8482;SDS011;4278;42.668;23.312;2023-08-07T06:53:50;1.63;;;1.50;;
8482;SDS011;4278;42.668;23.312;2023-08-07T06:56:17;1.77;;;1.67;;
8482;SDS011;4278;42.668;23.312;2023-08-07T06:58:44;4.45;;;2.03;;
8482;SDS011;4278;42.668;23.312;2023-08-07T07:01:10;1.70;;;1.60;;
8482;SDS011;4278;42.668;23.312;2023-08-07T07:03:38;1.77;;;1.52;;
8482;SDS011;4278;42.668;23.312;2023-08-07T07:06:05;1.30;;;1.20;;
8482;SDS011;4278;42.668;23.312;2023-08-07T07:08:32;3.13;;;1.50;;
8482;SDS011;4278;42.668;23.312;2023-08-07T07:10:58;2.10;;;1.40;;
8482;SDS011;4278;42.668;23.312;2023-08-07T07:13:26;1.70;;;1.60;;
8482;SDS011;4278;42.668;23.312;2023-08-07T07:15:53;1.73;;;1.60;;
8482;SDS011;4278;42.668;23.312;2023-08-07T07:18:20;1.80;;;1.70;;
8482;SDS011;4278;42.668;23.312;2023-08-07T07:20:48;2.00;;;1.80;;
8482;SDS011;4278;42.668;23.312;2023-08-07T07:23:23;1.60;;;1.50;;
8482;SDS011;4278;42.668;23.312;2023-08-07T07:25:50;1.75;;;1.65;;
8482;SDS011;4278;42.668;23.312;2023-08-07T07:28:16;1.92;;;1.60;;
8482;SDS011;4278;42.668;23.312;2023-08-07T07:30:43;2.00;;;1.80;;
8482;SDS011;4278;42.668;23.312;2023-08-07T07:33:10;2.17;;;1.88;;
8482;SDS011;4278;42.668;23.312;2023-08-07T07:35:38;1.73;;;1.60;;
8482;SDS011;4278;42.668;23.312;2023-08-07T07:38:07;2.17;;;1.52;;
8482;SDS011;4278;42.668;23.312;2023-08-07T07:40:35;3.22;;;1.70;;
8482;SDS011;4278;42.668;23.312;2023-08-07T07:43:02;2.10;;;1.80;;
8482;SDS011;4278;42.668;23.312;2023-08-07T07:45:29;6.60;;;2.20;;
8482;SDS011;4278;42.668;23.312;2023-08-07T07:47:55;2.10;;;1.92;;
8482;SDS011;4278;42.668;23.312;2023-08-07T07:50:22;3.30;;;1.50;;
8482;SDS011;4278;42.668;23.312;2023-08-07T07:52:49;2.60;;;1.77;;
8482;SDS011;4278;42.668;23.312;2023-08-07T07:55:18;2.33;;;1.70;;
8482;SDS011;4278;42.668;23.312;2023-08-07T07:57:45;1.92;;;1.73;;
8482;SDS011;4278;42.668;23.312;2023-08-07T08:00:12;1.83;;;1.70;;
8482;SDS011;4278;42.668;23.312;2023-08-07T08:02:39;2.22;;;2.00;;
8482;SDS011;4278;42.668;23.312;2023-08-07T08:05:08;3.17;;;1.95;;
8482;SDS011;4278;42.668;23.312;2023-08-07T08:07:35;2.75;;;1.38;;
8482;SDS011;4278;42.668;23.312;2023-08-07T08:10:04;3.97;;;2.10;;
8482;SDS011;4278;42.668;23.312;2023-08-07T08:12:33;3.35;;;1.55;;
8482;SDS011;4278;42.668;23.312;2023-08-07T08:15:00;2.33;;;1.55;;
8482;SDS011;4278;42.668;23.312;2023-08-07T08:17:28;1.42;;;1.23;;
8482;SDS011;4278;42.668;23.312;2023-08-07T08:19:54;3.80;;;1.90;;
8482;SDS011;4278;42.668;23.312;2023-08-07T08:22:21;1.85;;;1.73;;
8482;SDS011;4278;42.668;23.312;2023-08-07T08:24:49;3.42;;;2.00;;
8482;SDS011;4278;42.668;23.312;2023-08-07T08:27:15;3.75;;;1.70;;
8482;SDS011;4278;42.668;23.312;2023-08-07T08:29:44;4.85;;;1.73;;
8482;SDS011;4278;42.668;23.312;2023-08-07T08:32:11;1.40;;;1.30;;
8482;SDS011;4278;42.668;23.312;2023-08-07T08:34:39;2.20;;;1.30;;
8482;SDS011;4278;42.668;23.312;2023-08-07T08:37:05;2.55;;;1.40;;
8482;SDS011;4278;42.668;23.312;2023-08-07T08:39:33;2.03;;;1.60;;
8482;SDS011;4278;42.668;23.312;2023-08-07T08:42:00;1.60;;;1.50;;
8482;SDS011;4278;42.668;23.312;2023-08-07T08:44:28;1.98;;;1.20;;
8482;SDS011;4278;42.668;23.312;2023-08-07T08:46:59;1.80;;;1.67;;
8482;SDS011;4278;42.668;23.312;2023-08-07T08:49:28;1.50;;;1.40;;
8482;SDS011;4278;42.668;23.312;2023-08-07T08:51:59;1.48;;;1.38;;
8482;SDS011;4278;42.668;23.312;2023-08-07T08:54:26;2.10;;;1.70;;
8482;SDS011;4278;42.668;23.312;2023-08-07T08:56:53;1.50;;;1.40;;
8482;SDS011;4278;42.668;23.312;2023-08-07T08:59:22;2.38;;;1.80;;
8482;SDS011;4278;42.668;23.312;2023-08-07T09:01:49;1.90;;;1.60;;
8482;SDS011;4278;42.668;23.312;2023-08-07T09:04:19;3.20;;;1.58;;
8482;SDS011;4278;42.668;23.312;2023-08-07T09:06:46;2.55;;;1.40;;
8482;SDS011;4278;42.668;23.312;2023-08-07T09:09:13;1.60;;;1.30;;
8482;SDS011;4278;42.668;23.312;2023-08-07T09:11:41;2.17;;;1.20;;
8482;SDS011;4278;42.668;23.312;2023-08-07T09:14:09;2.25;;;1.70;;
8482;SDS011;4278;42.668;23.312;2023-08-07T09:16:38;2.35;;;1.45;;
8482;SDS011;4278;42.668;23.312;2023-08-07T09:19:05;1.55;;;1.45;;
8482;SDS011;4278;42.668;23.312;2023-08-07T09:21:34;1.77;;;1.65;;
8482;SDS011;4278;42.668;23.312;2023-08-07T09:24:01;2.30;;;1.63;;
8482;SDS011;4278;42.668;23.312;2023-08-07T09:26:28;1.58;;;1.35;;
8482;SDS011;4278;42.668;23.312;2023-08-07T09:28:58;2.35;;;1.80;;
8482;SDS011;4278;42.668;23.312;2023-08-07T09:31:24;2.47;;;1.70;;
8482;SDS011;4278;42.668;23.312;2023-08-07T09:33:52;1.70;;;1.60;;
8482;SDS011;4278;42.668;23.312;2023-08-07T09:36:19;2.35;;;1.70;;
8482;SDS011;4278;42.668;23.312;2023-08-07T09:38:50;2.45;;;1.40;;
8482;SDS011;4278;42.668;23.312;2023-08-07T09:41:17;1.80;;;1.65;;
8482;SDS011;4278;42.668;23.312;2023-08-07T09:43:45;1.83;;;1.60;;
8482;SDS011;4278;42.668;23.312;2023-08-07T09:46:11;1.50;;;1.40;;
8482;SDS011;4278;42.668;23.312;2023-08-07T09:48:39;2.33;;;1.48;;
8482;SDS011;4278;42.668;23.312;2023-08-07T09:51:06;3.50;;;2.50;;
8482;SDS011;4278;42.668;23.312;2023-08-07T09:53:33;1.50;;;1.40;;
8482;SDS011;4278;42.668;23.312;2023-08-07T09:56:02;1.77;;;1.40;;
8482;SDS011;4278;42.668;23.312;2023-08-07T09:58:29;2.17;;;1.50;;
8482;SDS011;4278;42.668;23.312;2023-08-07T10:00:56;2.00;;;1.80;;
8482;SDS011;4278;42.668;23.312;2023-08-07T10:03:25;1.63;;;1.20;;
8482;SDS011;4278;42.668;23.312;2023-08-07T10:05:52;1.40;;;1.27;;
8482;SDS011;4278;42.668;23.312;2023-08-07T10:08:20;2.40;;;1.48;;
8482;SDS011;4278;42.668;23.312;2023-08-07T10:10:47;1.50;;;1.40;;
8482;SDS011;4278;42.668;23.312;2023-08-07T10:13:16;1.58;;;1.40;;
8482;SDS011;4278;42.668;23.312;2023-08-07T10:15:44;1.60;;;1.50;;
8482;SDS011;4278;42.668;23.312;2023-08-07T10:18:12;1.80;;;1.63;;
8482;SDS011;4278;42.668;23.312;2023-08-07T10:20:39;1.50;;;1.40;;
8482;SDS011;4278;42.668;23.312;2023-08-07T10:23:09;1.63;;;1.50;;
8482;SDS011;4278;42.668;23.312;2023-08-07T10:25:37;1.98;;;1.73;;
8482;SDS011;4278;42.668;23.312;2023-08-07T10:28:08;1.40;;;1.30;;
8482;SDS011;4278;42.668;23.312;2023-08-07T10:30:39;1.70;;;1.40;;
8482;SDS011;4278;42.668;23.312;2023-08-07T10:33:07;1.30;;;1.20;;
8482;SDS011;4278;42.668;23.312;2023-08-07T10:35:35;3.17;;;1.20;;
8482;SDS011;4278;42.668;23.312;2023-08-07T10:38:05;4.18;;;2.08;;
8482;SDS011;4278;42.668;23.312;2023-08-07T10:40:33;5.28;;;3.53;;
8482;SDS011;4278;42.668;23.312;2023-08-07T10:43:11;6.25;;;2.70;;
8482;SDS011;4278;42.668;23.312;2023-08-07T10:45:40;3.03;;;1.50;;
8482;SDS011;4278;42.668;23.312;2023-08-07T10:48:07;2.53;;;2.00;;
8482;SDS011;4278;42.668;23.312;2023-08-07T10:50:46;2.50;;;1.48;;
8482;SDS011;4278;42.668;23.312;2023-08-07T10:53:18;1.50;;;1.40;;
8482;SDS011;4278;42.668;23.312;2023-08-07T10:55:46;2.75;;;1.50;;
8482;SDS011;4278;42.668;23.312;2023-08-07T10:58:23;1.73;;;1.60;;
8482;SDS011;4278;42.668;23.312;2023-08-07T11:00:52;2.90;;;1.80;;
8482;SDS011;4278;42.668;23.312;2023-08-07T11:04:05;2.60;;;1.42;;
8482;SDS011;4278;42.668;23.312;2023-08-07T11:06:36;2.17;;;1.50;;
8482;SDS011;4278;42.668;23.312;2023-08-07T11:09:05;1.65;;;1.52;;
8482;SDS011;4278;42.668;23.312;2023-08-07T11:11:34;2.65;;;1.80;;
8482;SDS011;4278;42.668;23.312;2023-08-07T11:14:05;1.50;;;1.40;;
8482;SDS011;4278;42.668;23.312;2023-08-07T11:16:33;1.38;;;1.27;;
8482;SDS011;4278;42.668;23.312;2023-08-07T11:19:00;2.85;;;1.73;;
8482;SDS011;4278;42.668;23.312;2023-08-07T11:21:28;2.10;;;1.90;;
8482;SDS011;4278;42.668;23.312;2023-08-07T11:23:55;2.03;;;1.83;;
8482;SDS011;4278;42.668;23.312;2023-08-07T11:26:22;5.80;;;2.33;;
8482;SDS011;4278;42.668;23.312;2023-08-07T11:28:51;1.40;;;1.30;;
8482;SDS011;4278;42.668;23.312;2023-08-07T11:31:18;3.25;;;1.70;;
8482;SDS011;4278;42.668;23.312;2023-08-07T11:33:46;2.70;;;1.80;;
8482;SDS011;4278;42.668;23.312;2023-08-07T11:36:13;2.00;;;1.58;;
8482;SDS011;4278;42.668;23.312;2023-08-07T11:38:41;3.30;;;1.70;;
8482;SDS011;4278;42.668;23.312;2023-08-07T11:41:10;3.25;;;1.92;;
8482;SDS011;4278;42.668;23.312;2023-08-07T11:43:37;3.00;;;2.10;;
8482;SDS011;4278;42.668;23.312;2023-08-07T11:46:07;1.80;;;1.40;;
8482;SDS011;4278;42.668;23.312;2023-08-07T11:48:35;1.60;;;1.50;;
8482;SDS011;4278;42.668;23.312;2023-08-07T11:51:05;5.88;;;1.83;;
8482;SDS011;4278;42.668;23.312;2023-08-07T11:53:33;2.78;;;1.77;;
8482;SDS011;4278;42.668;23.312;2023-08-07T11:56:02;2.55;;;1.88;;
8482;SDS011;4278;42.668;23.312;2023-08-07T11:58:33;2.15;;;1.50;;
8482;SDS011;4278;42.668;23.312;2023-08-07T12:01:03;3.80;;;1.55;;
8482;SDS011;4278;42.668;23.312;2023-08-07T12:03:31;2.30;;;1.50;;
8482;SDS011;4278;42.668;23.312;2023-08-07T12:06:03;1.70;;;1.60;;
8482;SDS011;4278;42.668;23.312;2023-08-07T12:08:32;3.50;;;1.90;;
8482;SDS011;4278;42.668;23.312;2023-08-07T12:11:01;2.28;;;1.90;;
8482;SDS011;4278;42.668;23.312;2023-08-07T12:13:29;2.33;;;1.70;;
8482;SDS011;4278;42.668;23.312;2023-08-07T12:15:56;1.65;;;1.50;;
8482;SDS011;4278;42.668;23.312;2023-08-07T12:18:24;1.92;;;1.73;;
8482;SDS011;4278;42.668;23.312;2023-08-07T12:20:55;1.70;;;1.60;;
8482;SDS011;4278;42.668;23.312;2023-08-07T12:23:25;2.53;;;1.60;;
8482;SDS011;4278;42.668;23.312;2023-08-07T12:25:52;2.05;;;1.60;;
8482;SDS011;4278;42.668;23.312;2023-08-07T12:28:19;1.70;;;1.60;;
8482;SDS011;4278;42.668;23.312;2023-08-07T12:30:46;2.33;;;1.60;;
8482;SDS011;4278;42.668;23.312;2023-08-07T12:33:14;2.28;;;1.70;;
8482;SDS011;4278;42.668;23.312;2023-08-07T12:35:41;1.70;;;1.60;;
8482;SDS011;4278;42.668;23.312;2023-08-07T12:38:08;1.88;;;1.48;;
8482;SDS011;4278;42.668;23.312;2023-08-07T12:40:37;1.92;;;1.67;;
8482;SDS011;4278;42.668;23.312;2023-08-07T12:43:04;1.77;;;1.65;;
8482;SDS011;4278;42.668;23.312;2023-08-07T12:45:31;1.45;;;1.35;;
8482;SDS011;4278;42.668;23.312;2023-08-07T12:47:58;1.60;;;1.25;;
8482;SDS011;4278;42.668;23.312;2023-08-07T12:50:26;2.03;;;1.55;;
8482;SDS011;4278;42.668;23.312;2023-08-07T12:52:53;2.88;;;1.73;;
8482;SDS011;4278;42.668;23.312;2023-08-07T12:55:20;3.38;;;1.55;;
8482;SDS011;4278;42.668;23.312;2023-08-07T12:57:48;4.45;;;1.90;;
8482;SDS011;4278;42.668;23.312;2023-08-07T13:00:15;2.25;;;1.60;;
8482;SDS011;4278;42.668;23.312;2023-08-07T13:02:43;2.13;;;1.70;;
8482;SDS011;4278;42.668;23.312;2023-08-07T13:05:12;1.90;;;1.73;;
8482;SDS011;4278;42.668;23.312;2023-08-07T13:07:40;2.33;;;1.55;;
8482;SDS011;4278;42.668;23.312;2023-08-07T13:10:08;2.10;;;1.60;;
8482;SDS011;4278;42.668;23.312;2023-08-07T13:12:38;2.63;;;2.08;;
8482;SDS011;4278;42.668;23.312;2023-08-07T13:15:08;2.30;;;1.80;;
8482;SDS011;4278;42.668;23.312;2023-08-07T13:17:37;2.42;;;1.85;;
8482;SDS011;4278;42.668;23.312;2023-08-07T13:20:04;2.17;;;1.83;;
8482;SDS011;4278;42.668;23.312;2023-08-07T13:22:33;2.35;;;1.60;;
8482;SDS011;4278;42.668;23.312;2023-08-07T13:25:00;3.35;;;2.03;;
8482;SDS011;4278;42.668;23.312;2023-08-07T13:27:28;2.20;;;2.00;;
8482;SDS011;4278;42.668;23.312;2023-08-07T13:29:55;2.33;;;2.00;;
8482;SDS011;4278;42.668;23.312;2023-08-07T13:32:23;4.60;;;1.90;;
8482;SDS011;4278;42.668;23.312;2023-08-07T13:34:51;1.98;;;1.80;;
8482;SDS011;4278;42.668;23.312;2023-08-07T13:37:17;3.45;;;1.80;;
8482;SDS011;4278;42.668;23.312;2023-08-07T13:39:44;2.10;;;1.90;;
8482;SDS011;4278;42.668;23.312;2023-08-07T13:42:13;5.03;;;2.90;;
8482;SDS011;4278;42.668;23.312;2023-08-07T13:44:40;7.85;;;2.80;;
8482;SDS011;4278;42.668;23.312;2023-08-07T13:47:07;4.03;;;3.17;;
8482;SDS011;4278;42.668;23.312;2023-08-07T13:49:36;7.75;;;4.15;;
8482;SDS011;4278;42.668;23.312;2023-08-07T13:52:03;7.65;;;3.03;;
8482;SDS011;4278;42.668;23.312;2023-08-07T13:54:31;2.90;;;2.33;;
8482;SDS011;4278;42.668;23.312;2023-08-07T13:56:58;2.22;;;1.73;;
8482;SDS011;4278;42.668;23.312;2023-08-07T13:59:25;2.90;;;2.00;;
8482;SDS011;4278;42.668;23.312;2023-08-07T14:01:52;1.98;;;1.70;;
8482;SDS011;4278;42.668;23.312;2023-08-07T14:04:21;8.18;;;5.80;;
8482;SDS011;4278;42.668;23.312;2023-08-07T14:06:49;4.50;;;2.58;;
8482;SDS011;4278;42.668;23.312;2023-08-07T14:09:16;2.60;;;1.92;;
8482;SDS011;4278;42.668;23.312;2023-08-07T14:11:43;2.33;;;1.90;;
8482;SDS011;4278;42.668;23.312;2023-08-07T14:14:10;2.90;;;1.63;;
8482;SDS011;4278;42.668;23.312;2023-08-07T14:16:37;2.05;;;1.70;;
8482;SDS011;4278;42.668;23.312;2023-08-07T14:19:04;2.03;;;1.85;;
8482;SDS011;4278;42.668;23.312;2023-08-07T14:21:30;2.63;;;2.03;;
8482;SDS011;4278;42.668;23.312;2023-08-07T14:23:58;3.05;;;2.15;;
8482;SDS011;4278;42.668;23.312;2023-08-07T14:26:25;2.67;;;1.92;;
8482;SDS011;4278;42.668;23.312;2023-08-07T14:28:52;3.75;;;2.10;;
8482;SDS011;4278;42.668;23.312;2023-08-07T14:31:19;1.90;;;1.75;;
8482;SDS011;4278;42.668;23.312;2023-08-07T14:33:46;1.75;;;1.65;;
8482;SDS011;4278;42.668;23.312;2023-08-07T14:36:13;2.03;;;1.90;;
8482;SDS011;4278;42.668;23.312;2023-08-07T14:38:40;2.42;;;1.60;;
8482;SDS011;4278;42.668;23.312;2023-08-07T14:41:09;2.05;;;1.77;;
8482;SDS011;4278;42.668;23.312;2023-08-07T14:43:35;2.55;;;1.80;;
8482;SDS011;4278;42.668;23.312;2023-08-07T14:46:02;2.00;;;1.80;;
8482;SDS011;4278;42.668;23.312;2023-08-07T14:48:29;2.55;;;2.00;;
8482;SDS011;4278;42.668;23.312;2023-08-07T14:50:56;1.85;;;1.75;;
8482;SDS011;4278;42.668;23.312;2023-08-07T14:53:22;3.28;;;2.30;;
8482;SDS011;4278;42.668;23.312;2023-08-07T14:55:50;1.77;;;1.67;;
8482;SDS011;4278;42.668;23.312;2023-08-07T14:58:19;2.42;;;1.90;;
8482;SDS011;4278;42.668;23.312;2023-08-07T15:00:45;1.80;;;1.70;;
8482;SDS011;4278;42.668;23.312;2023-08-07T15:03:14;4.03;;;2.10;;